createdAt,value
2019-01-21T00:00:52.317Z,74.65
2019-01-21T00:03:24.145Z,74.57
2019-01-21T00:05:55.465Z,74.44
2019-01-21T00:08:26.767Z,74.42
2019-01-21T00:10:58.031Z,74.33
2019-01-21T00:13:29.358Z,74.42
2019-01-21T00:16:00.729Z,74.31
2019-01-21T00:18:32.020Z,75.04
2019-01-21T00:21:03.287Z,75.50
2019-01-21T00:23:34.581Z,76.04
2019-01-21T00:26:05.865Z,76.36
2019-01-21T00:28:37.136Z,76.69
2019-01-21T00:31:08.388Z,77.00
2019-01-21T00:33:39.678Z,77.25
2019-01-21T00:36:11.037Z,77.60
2019-01-21T00:38:42.368Z,77.84
2019-01-21T00:41:13.653Z,78.00
2019-01-21T00:43:44.994Z,77.97
2019-01-21T00:46:16.268Z,77.84
2019-01-21T00:48:47.577Z,77.62
2019-01-21T00:51:18.928Z,77.39
2019-01-21T00:53:50.264Z,77.25
2019-01-21T00:56:21.580Z,77.02
2019-01-21T00:58:52.887Z,76.95
2019-01-21T01:01:24.215Z,76.55
2019-01-21T01:03:55.530Z,76.57
2019-01-21T01:06:26.813Z,76.74
2019-01-21T01:08:58.117Z,76.94
2019-01-21T01:11:29.473Z,77.11
2019-01-21T01:14:00.794Z,76.87
2019-01-21T01:16:32.072Z,77.04
2019-01-21T01:19:03.448Z,76.94
2019-01-21T01:21:34.773Z,76.96
2019-01-21T01:24:06.203Z,76.76
2019-01-21T01:26:37.485Z,76.70
2019-01-21T01:29:08.797Z,76.69
2019-01-21T01:31:40.142Z,76.44
2019-01-21T01:34:11.455Z,75.40
2019-01-21T01:36:42.746Z,74.80
2019-01-21T01:39:14.060Z,76.14
2019-01-21T01:41:45.355Z,77.37
2019-01-21T01:44:16.653Z,77.81
2019-01-21T01:46:48.354Z,78.28
2019-01-21T01:49:19.647Z,78.99
2019-01-21T01:51:50.942Z,79.15
2019-01-21T01:54:25.630Z,79.09
2019-01-21T01:56:57.092Z,79.71
2019-01-21T01:59:28.407Z,79.52
2019-01-21T02:01:59.715Z,78.90
2019-01-21T02:04:31.011Z,78.97
2019-01-21T02:07:02.317Z,79.18
2019-01-21T02:09:33.640Z,79.11
2019-01-21T02:12:05.108Z,78.83
2019-01-21T02:14:36.413Z,78.18
2019-01-21T02:17:07.697Z,77.76
2019-01-21T02:19:41.528Z,77.21
2019-01-21T02:22:15.410Z,77.24
2019-01-21T02:24:50.079Z,77.47
2019-01-21T02:28:27.619Z,77.46
2019-01-21T02:31:56.220Z,77.59
2019-01-21T02:35:39.630Z,77.43
2019-01-21T02:38:56.266Z,77.36
2019-01-21T02:41:59.629Z,77.06
2019-01-21T02:45:18.349Z,76.77
2019-01-21T02:48:18.514Z,76.79
2019-01-21T02:52:00.997Z,76.92
2019-01-21T02:55:11.613Z,76.94
2019-01-21T02:58:41.880Z,76.91
2019-01-21T03:02:06.618Z,76.98
2019-01-21T03:05:20.767Z,76.64
2019-01-21T03:08:32.358Z,77.42
2019-01-21T03:12:12.797Z,78.34
2019-01-21T03:15:52.639Z,78.78
2019-01-21T03:19:17.193Z,78.81
2019-01-21T03:22:55.759Z,78.26
2019-01-21T03:26:23.390Z,78.50
2019-01-21T03:30:06.658Z,78.92
2019-01-21T03:33:21.491Z,79.30
2019-01-21T03:36:45.416Z,79.75
2019-01-21T03:39:58.199Z,79.18
2019-01-21T03:42:52.914Z,79.27
2019-01-21T03:45:53.219Z,78.64
2019-01-21T03:49:03.845Z,79.04
2019-01-21T03:52:24.862Z,79.56
2019-01-21T03:55:03.496Z,79.89
2019-01-21T03:58:42.882Z,79.38
2019-01-21T04:02:11.351Z,78.40
2019-01-21T04:05:20.457Z,78.45
2019-01-21T04:08:36.083Z,78.83
2019-01-21T04:11:43.976Z,78.04
2019-01-21T04:15:13.470Z,77.24
2019-01-21T04:18:41.279Z,77.37
2019-01-21T04:22:00.797Z,78.17
2019-01-21T04:24:58.824Z,78.72
2019-01-21T04:28:16.860Z,77.97
2019-01-21T04:31:22.228Z,78.47
2019-01-21T04:34:45.429Z,78.34
2019-01-21T04:38:14.404Z,78.70
2019-01-21T04:41:10.450Z,78.62
2019-01-21T04:44:37.401Z,78.24
2019-01-21T04:47:52.302Z,77.98
2019-01-21T04:51:05.612Z,78.36
2019-01-21T04:54:27.132Z,77.47
2019-01-21T04:58:09.166Z,77.27
2019-01-21T05:01:18.411Z,76.97
2019-01-21T05:04:36.176Z,77.25
2019-01-21T05:07:51.074Z,77.91
2019-01-21T05:11:14.107Z,77.88
2019-01-21T05:14:51.935Z,78.07
2019-01-21T05:18:12.070Z,77.62
2019-01-21T05:21:48.367Z,77.36
2019-01-21T05:25:08.740Z,77.85
2019-01-21T05:28:19.788Z,77.63
2019-01-21T05:31:33.382Z,77.18
2019-01-21T05:35:11.149Z,77.70
2019-01-21T05:38:07.878Z,78.73
2019-01-21T05:41:15.239Z,79.11
2019-01-21T05:44:58.038Z,79.45
2019-01-21T05:48:49.013Z,79.33
2019-01-21T05:52:24.684Z,77.61
2019-01-21T05:55:40.730Z,77.42
2019-01-21T05:59:21.336Z,77.47
2019-01-21T06:02:37.161Z,78.03
2019-01-21T06:05:52.423Z,78.32
2019-01-21T06:09:15.292Z,78.61
2019-01-21T06:12:46.479Z,78.80
2019-01-21T06:15:57.958Z,79.13
2019-01-21T06:19:11.241Z,79.25
2019-01-21T06:22:45.382Z,78.87
2019-01-21T06:26:12.720Z,78.07
2019-01-21T06:30:13.756Z,77.53
2019-01-21T06:33:48.775Z,77.39
2019-01-21T06:37:17.605Z,77.92
2019-01-21T06:40:32.321Z,78.39
2019-01-21T06:43:32.546Z,79.34
2019-01-21T06:46:52.652Z,79.65
2019-01-21T06:50:09.393Z,79.37
2019-01-21T06:53:28.766Z,79.23
2019-01-21T06:56:53.167Z,79.07
2019-01-21T07:00:21.685Z,78.25
2019-01-21T07:03:39.623Z,77.96
2019-01-21T07:07:01.272Z,77.53
2019-01-21T07:10:15.531Z,78.03
2019-01-21T07:13:32.847Z,78.08
2019-01-21T07:16:38.171Z,78.36
2019-01-21T07:20:33.302Z,78.62
2019-01-21T07:23:53.220Z,78.39
2019-01-21T07:27:12.471Z,77.37
2019-01-21T07:30:30.968Z,76.56
2019-01-21T07:33:41.475Z,76.77
2019-01-21T07:36:34.761Z,77.15
2019-01-21T07:39:40.757Z,76.16
2019-01-21T07:42:52.225Z,72.92
2019-01-21T07:45:46.848Z,68.24
2019-01-21T07:49:24.969Z,64.12
2019-01-21T07:52:41.052Z,60.26
2019-01-21T07:56:02.575Z,56.26
2019-01-21T07:59:46.938Z,53.08
2019-01-21T08:03:34.316Z,49.35
2019-01-21T08:06:59.186Z,46.32
2019-01-21T08:10:11.355Z,42.99
2019-01-21T08:13:42.678Z,40.58
2019-01-21T08:16:58.695Z,38.12
2019-01-21T08:20:25.245Z,36.21
2019-01-21T08:23:47.403Z,34.05
2019-01-21T08:27:17.003Z,31.63
2019-01-21T08:30:41.483Z,29.86
2019-01-21T08:34:13.799Z,28.87
2019-01-21T08:37:58.595Z,27.75
2019-01-21T08:41:31.277Z,26.54
2019-01-21T08:44:53.405Z,25.43
2019-01-21T08:48:24.933Z,23.99
2019-01-21T08:51:52.909Z,22.95
2019-01-21T08:55:10.951Z,22.05
2019-01-21T08:58:45.720Z,21.29
2019-01-21T09:01:56.842Z,21.10
2019-01-21T09:05:03.624Z,21.19
2019-01-21T09:08:11.354Z,20.21
2019-01-21T09:12:06.622Z,19.89
2019-01-21T09:16:10.583Z,19.12
2019-01-21T09:19:46.883Z,20.32
2019-01-21T09:22:53.269Z,21.30
2019-01-21T09:26:23.645Z,20.41
2019-01-21T09:29:27.022Z,19.97
2019-01-21T09:32:48.657Z,19.64
2019-01-21T09:35:54.441Z,19.16
2019-01-21T09:39:18.679Z,18.43
2019-01-21T09:42:56.424Z,19.23
2019-01-21T09:46:08.447Z,20.25
2019-01-21T09:48:37.257Z,22.00
2019-01-21T09:51:08.668Z,22.53
2019-01-21T09:53:40.780Z,22.63
2019-01-21T09:56:12.189Z,22.87
2019-01-21T09:58:45.458Z,21.71
2019-01-21T10:01:17.310Z,21.65
2019-01-21T10:03:48.752Z,21.68
2019-01-21T10:06:27.521Z,21.23
2019-01-21T10:10:00.478Z,20.55
2019-01-21T10:13:50.102Z,21.18
2019-01-21T10:17:07.802Z,21.16
2019-01-21T10:20:27.056Z,20.19
2019-01-21T10:24:34.531Z,20.33
2019-01-21T10:27:58.530Z,19.31
2019-01-21T10:31:13.560Z,20.61
2019-01-21T10:34:46.704Z,21.08
2019-01-21T10:38:14.782Z,22.37
2019-01-21T10:41:26.194Z,21.67
2019-01-21T10:44:28.327Z,23.26
2019-01-21T10:47:22.526Z,24.13
2019-01-21T10:50:47.449Z,24.38
2019-01-21T10:54:05.005Z,23.34
2019-01-21T10:57:27.388Z,24.17
2019-01-21T11:01:00.715Z,23.13
2019-01-21T11:04:43.009Z,22.30
2019-01-21T11:08:19.117Z,21.46
2019-01-21T11:12:08.091Z,21.30
2019-01-21T11:15:33.603Z,21.77
2019-01-21T11:18:44.876Z,22.31
2019-01-21T11:22:08.384Z,23.22
2019-01-21T11:25:39.309Z,25.29
2019-01-21T11:28:54.720Z,26.97
2019-01-21T11:31:48.560Z,25.88
2019-01-21T11:35:18.529Z,25.09
2019-01-21T11:38:51.487Z,25.26
2019-01-21T11:42:22.958Z,23.90
2019-01-21T11:46:04.530Z,23.40
2019-01-21T11:48:52.032Z,24.52
2019-01-21T11:52:03.088Z,24.34
2019-01-21T11:55:19.369Z,23.87
2019-01-21T11:58:32.581Z,23.36
2019-01-21T12:02:03.141Z,23.84
2019-01-21T12:05:25.698Z,23.52
2019-01-21T12:09:18.357Z,22.92
2019-01-21T12:12:32.513Z,22.27
2019-01-21T12:16:20.125Z,22.50
2019-01-21T12:19:29.673Z,22.67
2019-01-21T12:23:21.945Z,22.06
2019-01-21T12:26:33.404Z,23.48
2019-01-21T12:29:40.708Z,23.23
2019-01-21T12:33:03.088Z,23.13
2019-01-21T12:36:27.023Z,22.75
2019-01-21T12:40:08.760Z,22.99
2019-01-21T12:43:36.735Z,22.77
2019-01-21T12:47:13.701Z,22.69
2019-01-21T12:50:52.180Z,22.30
2019-01-21T12:54:06.504Z,22.97
2019-01-21T12:57:39.275Z,22.64
2019-01-21T13:00:57.823Z,22.36
2019-01-21T13:03:59.811Z,22.66
2019-01-21T13:07:21.780Z,22.04
2019-01-21T13:10:54.468Z,21.72
2019-01-21T13:14:15.749Z,22.01
2019-01-21T13:17:26.912Z,22.56
2019-01-21T13:20:45.783Z,23.13
2019-01-21T13:23:39.943Z,22.49
2019-01-21T13:26:54.259Z,22.75
2019-01-21T13:30:43.443Z,22.62
2019-01-21T13:33:53.822Z,22.31
2019-01-21T13:37:09.994Z,22.48
2019-01-21T13:40:53.140Z,21.87
2019-01-21T13:44:38.667Z,21.93
2019-01-21T13:48:09.139Z,22.88
2019-01-21T13:51:26.911Z,24.17
2019-01-21T13:54:39.731Z,23.13
2019-01-21T13:58:08.990Z,23.40
2019-01-21T14:01:21.794Z,23.45
2019-01-21T14:04:40.806Z,24.57
2019-01-21T14:07:57.459Z,25.98
2019-01-21T14:11:02.306Z,26.70
2019-01-21T14:14:11.973Z,26.61
2019-01-21T14:17:34.514Z,27.86
2019-01-21T14:20:46.134Z,28.67
2019-01-21T14:23:42.583Z,28.90
2019-01-21T14:27:12.670Z,30.59
2019-01-21T14:31:01.445Z,31.88
2019-01-21T14:34:05.591Z,32.44
2019-01-21T14:37:37.390Z,32.92
2019-01-21T14:40:38.843Z,33.17
2019-01-21T14:43:53.036Z,33.60
2019-01-21T14:47:36.283Z,33.66
2019-01-21T14:51:00.260Z,34.18
2019-01-21T14:54:41.285Z,34.09
2019-01-21T14:57:56.275Z,34.61
2019-01-21T15:01:26.904Z,33.93
2019-01-21T15:05:06.563Z,34.28
2019-01-21T15:07:58.004Z,35.14
2019-01-21T15:11:11.631Z,35.52
2019-01-21T15:14:24.739Z,35.71
2019-01-21T15:17:49.071Z,36.38
2019-01-21T15:20:57.737Z,35.69
2019-01-21T15:23:47.030Z,36.30
2019-01-21T15:27:13.809Z,36.76
2019-01-21T15:30:15.309Z,36.77
2019-01-21T15:33:35.717Z,37.66
2019-01-21T15:37:00.911Z,38.81
2019-01-21T15:40:35.089Z,39.20
2019-01-21T15:43:38.971Z,40.22
2019-01-21T15:46:54.604Z,41.68
2019-01-21T15:49:50.104Z,42.30
2019-01-21T15:53:11.247Z,43.46
2019-01-21T15:56:06.841Z,44.28
2019-01-21T15:58:57.897Z,45.32
2019-01-21T16:02:27.995Z,45.91
2019-01-21T16:06:06.916Z,46.35
2019-01-21T16:09:10.486Z,47.15
2019-01-21T16:12:36.437Z,48.14
2019-01-21T16:15:48.937Z,48.23
2019-01-21T16:18:34.935Z,49.67
2019-01-21T16:22:12.050Z,50.09
2019-01-21T16:25:55.079Z,50.80
2019-01-21T16:29:10.388Z,52.04
2019-01-21T16:32:01.992Z,51.61
2019-01-21T16:35:14.410Z,52.62
2019-01-21T16:38:09.378Z,53.49
2019-01-21T16:41:27.411Z,54.40
2019-01-21T16:43:58.682Z,54.60
2019-01-21T16:46:30.018Z,55.36
2019-01-21T16:49:01.320Z,55.52
2019-01-21T16:51:32.566Z,55.50
2019-01-21T16:54:03.892Z,56.00
2019-01-21T16:56:35.162Z,56.53
2019-01-21T16:59:06.615Z,56.63
2019-01-21T17:01:37.895Z,57.62
2019-01-21T17:04:09.193Z,57.58
2019-01-21T17:06:40.567Z,57.93
2019-01-21T17:09:12.851Z,58.04
2019-01-21T17:11:44.159Z,58.27
2019-01-21T17:14:15.451Z,57.89
2019-01-21T17:16:46.758Z,57.93
2019-01-21T17:19:18.078Z,58.62
2019-01-21T17:21:49.316Z,58.18
2019-01-21T17:24:20.581Z,58.72
2019-01-21T17:26:51.822Z,58.43
2019-01-21T17:29:23.161Z,58.37
2019-01-21T17:31:55.046Z,58.95
2019-01-21T17:34:26.349Z,59.25
2019-01-21T17:36:57.603Z,59.01
2019-01-21T17:39:28.859Z,59.50
2019-01-21T17:42:00.187Z,60.24
2019-01-21T17:44:31.475Z,60.23
2019-01-21T17:47:02.760Z,60.00
2019-01-21T17:49:34.042Z,60.12
2019-01-21T17:52:05.555Z,60.48
2019-01-21T17:54:36.847Z,60.48
2019-01-21T17:57:08.169Z,60.79
2019-01-21T17:59:39.450Z,61.16
2019-01-21T18:02:10.747Z,61.10
2019-01-21T18:04:42.046Z,60.73
2019-01-21T18:07:13.351Z,60.79
2019-01-21T18:09:44.636Z,61.11
2019-01-21T18:12:15.961Z,61.36
2019-01-21T18:14:47.275Z,61.66
2019-01-21T18:17:18.584Z,61.52
2019-01-21T18:19:49.862Z,61.39
2019-01-21T18:22:21.198Z,61.90
2019-01-21T18:24:52.538Z,61.92
2019-01-21T18:27:23.867Z,61.49
2019-01-21T18:29:55.145Z,61.87
2019-01-21T18:32:26.481Z,61.88
2019-01-21T18:34:57.816Z,61.57
2019-01-21T18:37:29.150Z,61.90
2019-01-21T18:40:00.465Z,61.61
2019-01-21T18:42:31.755Z,61.32
2019-01-21T18:45:03.067Z,61.70
2019-01-21T18:47:34.383Z,61.89
2019-01-21T18:50:06.796Z,62.10
2019-01-21T18:52:38.115Z,62.09
2019-01-21T18:55:09.778Z,62.41
2019-01-21T18:57:41.089Z,62.90
2019-01-21T19:00:17.283Z,61.96
2019-01-21T19:02:48.599Z,62.31
2019-01-21T19:05:20.174Z,62.70
2019-01-21T19:07:51.481Z,63.42
2019-01-21T19:10:22.774Z,62.49
2019-01-21T19:12:54.227Z,62.83
2019-01-21T19:15:31.930Z,63.14
2019-01-21T19:18:03.541Z,63.38
2019-01-21T19:20:34.849Z,63.14
2019-01-21T19:23:06.137Z,63.07
2019-01-21T19:25:37.467Z,63.07
2019-01-21T19:28:08.759Z,62.79
2019-01-21T19:30:40.087Z,62.68
2019-01-21T19:33:11.463Z,62.67
2019-01-21T19:35:42.800Z,61.98
2019-01-21T19:38:14.097Z,62.46
2019-01-21T19:40:45.431Z,61.85
2019-01-21T19:43:16.815Z,62.45
2019-01-21T19:45:48.164Z,61.75
2019-01-21T19:48:19.482Z,61.90
2019-01-21T19:50:50.903Z,62.52
2019-01-21T19:53:22.247Z,63.26
2019-01-21T19:55:53.505Z,63.54
2019-01-21T19:58:24.903Z,63.34
2019-01-21T20:00:56.352Z,63.66
2019-01-21T20:03:27.669Z,63.60
2019-01-21T20:05:58.965Z,63.91
2019-01-21T20:08:30.275Z,63.92
2019-01-21T20:11:01.613Z,63.97
2019-01-21T20:13:32.898Z,64.29
2019-01-21T20:16:04.218Z,63.64
2019-01-21T20:18:35.555Z,63.87
2019-01-21T20:21:06.911Z,63.91
2019-01-21T20:23:38.232Z,63.22
2019-01-21T20:26:09.524Z,63.34
2019-01-21T20:28:40.947Z,62.86
2019-01-21T20:31:12.236Z,63.24
2019-01-21T20:33:43.577Z,62.63
2019-01-21T20:36:14.921Z,63.08
2019-01-21T20:38:46.271Z,63.49
2019-01-21T20:41:17.598Z,63.51
2019-01-21T20:43:48.960Z,63.67
2019-01-21T20:46:20.231Z,63.79
2019-01-21T20:48:51.546Z,63.61
2019-01-21T20:51:22.862Z,63.45
2019-01-21T20:53:54.201Z,63.74
2019-01-21T20:56:25.483Z,63.42
2019-01-21T20:58:56.739Z,63.30
2019-01-21T21:01:28.108Z,63.05
2019-01-21T21:03:59.464Z,63.17
2019-01-21T21:06:30.801Z,63.19
2019-01-21T21:09:02.162Z,63.54
2019-01-21T21:11:33.490Z,63.47
2019-01-21T21:14:04.927Z,63.70
2019-01-21T21:16:36.246Z,64.03
2019-01-21T21:19:07.614Z,64.24
2019-01-21T21:21:38.946Z,64.54
2019-01-21T21:24:10.262Z,64.58
2019-01-21T21:26:41.581Z,64.43
2019-01-21T21:29:13.711Z,65.01
2019-01-21T21:31:45.053Z,64.74
2019-01-21T21:34:16.561Z,64.64
2019-01-21T21:36:47.907Z,64.44
2019-01-21T21:39:19.241Z,64.76
2019-01-21T21:41:50.532Z,64.82
2019-01-21T21:44:21.862Z,64.97
2019-01-21T21:46:53.171Z,65.06
2019-01-21T21:49:24.753Z,65.24
2019-01-21T21:51:56.161Z,65.21
2019-01-21T21:54:27.507Z,65.12
2019-01-21T21:56:59.099Z,65.10
2019-01-21T21:59:30.450Z,64.80
2019-01-21T22:02:01.775Z,64.54
2019-01-21T22:04:33.189Z,64.53
2019-01-21T22:07:04.490Z,64.66
2019-01-21T22:09:35.789Z,64.58
2019-01-21T22:12:07.087Z,64.05
2019-01-21T22:14:38.392Z,64.03
2019-01-21T22:17:09.705Z,63.69
2019-01-21T22:19:41.298Z,63.78
2019-01-21T22:22:12.617Z,64.05
2019-01-21T22:24:43.912Z,64.25
2019-01-21T22:27:15.198Z,64.41
2019-01-21T22:29:46.500Z,64.87
2019-01-21T22:32:17.813Z,64.97
2019-01-21T22:34:49.116Z,65.04
2019-01-21T22:37:20.401Z,65.25
2019-01-21T22:39:51.641Z,65.29
2019-01-21T22:42:23.246Z,65.48
2019-01-21T22:44:54.520Z,65.83
2019-01-21T22:47:25.842Z,66.09
2019-01-21T22:49:57.168Z,66.08
2019-01-21T22:52:28.745Z,66.06
2019-01-21T22:55:00.242Z,66.19
2019-01-21T22:57:31.562Z,65.90
2019-01-21T23:00:02.894Z,65.98
2019-01-21T23:02:34.291Z,66.27
2019-01-21T23:05:06.167Z,66.43
2019-01-21T23:07:37.513Z,66.38
2019-01-21T23:10:09.025Z,66.61
2019-01-21T23:12:40.355Z,66.81
2019-01-21T23:15:12.063Z,67.07
2019-01-21T23:17:43.356Z,67.32
2019-01-21T23:20:14.665Z,67.15
2019-01-21T23:22:49.269Z,67.53
2019-01-21T23:25:19.047Z,67.50
2019-01-21T23:27:50.389Z,67.46
2019-01-21T23:30:22.089Z,67.52
2019-01-21T23:32:53.458Z,67.44
2019-01-21T23:35:24.767Z,67.53
2019-01-21T23:37:56.351Z,67.92
2019-01-21T23:40:30.770Z,67.69
2019-01-21T23:43:02.105Z,67.59
2019-01-21T23:45:33.434Z,67.59
2019-01-21T23:48:04.832Z,67.71
2019-01-21T23:50:36.139Z,67.89
2019-01-21T23:53:07.457Z,67.93
2019-01-21T23:55:38.737Z,68.01
2019-01-21T23:58:10.079Z,68.01
